Washington, District of Columbia
Traffic Map
Current Weather Conditions
Washington, District of Columbia
Clear
Clear

Feels Like: 6°
Wind Chill: Ceiling: Unl
Heat Index: Visibility: 10mi
Dew Point: -2° Wind: 10mph
Humidity: 50% Direction: 50° (NE)
Pressure: 30.44in Gusts: 0mph
Raw Report DataKDCA 210552Z 05009KT 10SM CLR 08/M02 A3044 RMK AO2 SLP307 T00831017 10139 20083 53022
Traffic Incident Summary
Active as of:
Severity:
Category:
InformationThere was an issue retrieving the traffic information for this location. Please try a different location or try again shortly.
Advertisements